Nireas — SX9654 — position and weather

sailwx.info

Track history (hours):
 
Tides and Currents Weather Stations Pressure Air Temp Water Temp Dewpoint Dewpoint Depression Visibility Wind Speed Wind Dir Waves Ship Positions

Nireas

Last reported at 2017-Jun-04 07:34 UTC. Time now 2017-Jun-26 08:32 UTC.
Position N 39°34' E 020°03'.
Warning: this ship's position is 22 days out of date.

Length 61 m; draft 2.5 m.

Type: Passenger vessel. MMSI: 237470300.

Date/timePositionNaut miles runAvg speedWind from/ knotsBaromVisibWave heightAir tempDewpointWater temp
2017-Jun-04 07:34N 39°34' E 020°03'3 0.2
2017-Jun-03 10:29N 39°36' E 019°59'14 9.3
2017-Jun-03 08:57N 39°30' E 020°16'0 0.0
2017-Jun-03 08:30N 39°30' E 020°16'11 8.7
2017-Jun-03 07:17N 39°34' E 020°03'311.1
2017-Jun-03 07:00N 39°36' E 019°60'2 0.1
2017-Jun-02 15:46N 39°35' E 020°02'310.6
2017-Jun-02 15:30N 39°33' E 020°05'9 5.6
2017-Jun-02 13:54N 39°30' E 020°16'3 7.6
2017-Jun-02 13:30N 39°30' E 020°12'710.7
2017-Jun-02 12:51N 39°33' E 020°04'511.1
2017-Jun-02 12:25N 39°36' E 019°59'2 1.3
2017-Jun-02 10:39N 39°38' E 019°56'310.8
2017-Jun-02 10:24N 39°36' E 019°59'610.8
2017-Jun-02 09:53N 39°33' E 020°05'810.6
2017-Jun-02 09:06N 39°30' E 020°15'1 1.1
2017-Jun-02 08:38N 39°30' E 020°16'0 0.0
2017-Jun-02 08:19N 39°30' E 020°16'1110.3
2017-Jun-02 07:14N 39°34' E 020°02'311.2
2017-Jun-02 06:57N 39°36' E 019°59'2 0.2
2017-Jun-01 15:42N 39°35' E 020°02'12 6.0
2017-Jun-01 13:46N 39°30' E 020°15'710.7
2017-Jun-01 13:04N 39°32' E 020°06'111.2
2017-Jun-01 12:57N 39°33' E 020°05'  
Track history (hours):
 
Tides and Currents Weather Stations Pressure Air Temp Water Temp Dewpoint Dewpoint Depression Visibility Wind Speed Wind Dir Waves Ship Positions

Nireas

Last reported at 2017-Jun-04 07:34 UTC. Time now 2017-Jun-26 08:32 UTC.
Position N 39°34' E 020°03'.
Warning: this ship's position is 22 days out of date.

Length 61 m; draft 2.5 m.

Type: Passenger vessel. MMSI: 237470300.

Date/timePositionNaut miles runAvg speedWind from/ knotsBaromVisibWave heightAir tempDewpointWater temp
2017-Jun-04 07:34N 39°34' E 020°03'3 0.2
2017-Jun-03 10:29N 39°36' E 019°59'14 9.3
2017-Jun-03 08:57N 39°30' E 020°16'0 0.0
2017-Jun-03 08:30N 39°30' E 020°16'11 8.7
2017-Jun-03 07:17N 39°34' E 020°03'311.1
2017-Jun-03 07:00N 39°36' E 019°60'2 0.1
2017-Jun-02 15:46N 39°35' E 020°02'310.6
2017-Jun-02 15:30N 39°33' E 020°05'9 5.6
2017-Jun-02 13:54N 39°30' E 020°16'3 7.6
2017-Jun-02 13:30N 39°30' E 020°12'710.7
2017-Jun-02 12:51N 39°33' E 020°04'511.1
2017-Jun-02 12:25N 39°36' E 019°59'2 1.3
2017-Jun-02 10:39N 39°38' E 019°56'310.8
2017-Jun-02 10:24N 39°36' E 019°59'610.8
2017-Jun-02 09:53N 39°33' E 020°05'810.6
2017-Jun-02 09:06N 39°30' E 020°15'1 1.1
2017-Jun-02 08:38N 39°30' E 020°16'0 0.0
2017-Jun-02 08:19N 39°30' E 020°16'1110.3
2017-Jun-02 07:14N 39°34' E 020°02'311.2
2017-Jun-02 06:57N 39°36' E 019°59'2 0.2
2017-Jun-01 15:42N 39°35' E 020°02'12 6.0
2017-Jun-01 13:46N 39°30' E 020°15'710.7
2017-Jun-01 13:04N 39°32' E 020°06'111.2
2017-Jun-01 12:57N 39°33' E 020°05'  

Dump ship's entire track history